sim
Sign-in with your pilot id or email,
or register
Callsign
Passwort

Schedule Details

Flight Number: DLH2311
Departure: Amsterdam Schiphol Airport (EHAM) at 06:00
Arrival: Munich Airport (EDDM) at 07:20
Route: Lufthansa Passenger Schedule. Enter filed route here before submitting Pirep.

Weather Information
Getting current METAR information for EHAM 010325Z 15010KT CAVOK 16/14 Q1002 NOSIG
Getting current METAR information for EDDM 010320Z VRB01KT 0700 R08L/0500N R08R/0450D FG NSC 04/03 Q1010 BECMG 0500 BKN001

Schedule Frequency

Route Map